M I D A S
Marine Information and Data Acquisition System
Tripno 595 of the Zeeleeuw from 2003-09-22 06:35:02 to 2003-09-22 13:17:30
Back to CruiseResearch ActivitiesStationsMapUnderway DataData graphs

EquipmentUnitsComment
TimeDGPSUTC
LatitudeDGPSDM.mWGS84
LongitudeDGPSDM.mWGS84
HeadingGyrodeg 
SOGDGPSknotsSpeed over ground
COGDGPSdegCourse over ground
DepthEcho soundermeters200 kHz
Missing or incorrect values are displayed as -999
Navigation data collected by the RV Zeeleeuw from 2003-09-22 06:35:02 to 2003-09-22 13:17:30
Time Latitude Longitude Heading SOG COG Depth
2003-09-22 06:36:04 51°14.41 2°54.98 316.8 11.5 314 11.4
2003-09-22 06:37:04 51°14.58 2°54.78 331.6 12.7 326 10.6
2003-09-22 06:38:04 51°14.76 2°54.59 333.1 13.5 327 10.4
2003-09-22 06:39:04 51°14.95 2°54.4 333.8 13.6 327 9.6
2003-09-22 06:40:04 51°15.14 2°54.21 335.4 13.7 328 9.7
2003-09-22 06:41:04 51°15.34 2°54.02 334.3 13.8 327 10.3
2003-09-22 06:42:04 51°15.53 2°53.82 337.6 13.7 330 11.2
2003-09-22 06:43:04 51°15.73 2°53.64 337.5 13.7 330 12.2
2003-09-22 06:44:04 51°15.93 2°53.45 336.4 13.8 329 12.7
2003-09-22 06:45:04 51°16.13 2°53.28 339.8 13.8 333 13.1
2003-09-22 06:46:04 51°16.33 2°53.12 340 13.7 334 13.3
2003-09-22 06:47:04 51°16.53 2°52.96 339.5 13.6 333 12.8
2003-09-22 06:48:02 51°16.73 2°52.8 339.7 13.5 333 11.7
2003-09-22 06:49:04 51°16.93 2°52.64 339.8 13.4 333 10.7
2003-09-22 06:50:04 51°17.14 2°52.48 340 13.5 333 10.8
2003-09-22 06:51:04 51°17.34 2°52.32 340 13.6 332 11.3
2003-09-22 06:52:04 51°17.51 2°52.09 323 13.6 316 11.5
2003-09-22 06:53:04 51°17.65 2°51.8 311.3 13.3 304 11.3
2003-09-22 06:54:04 51°17.77 2°51.52 311.6 12.9 305 11.1
2003-09-22 06:55:04 51°17.9 2°51.24 312.8 12.9 306 11.8
2003-09-22 06:56:04 51°18.02 2°50.96 313.2 13.1 306 13.5
2003-09-22 06:57:04 51°18.15 2°50.68 312 13 306 14.4
2003-09-22 06:58:04 51°18.28 2°50.4 312.8 13 306 15.1
2003-09-22 06:59:04 51°18.41 2°50.12 313.5 13.1 307 15.4
2003-09-22 07:00:04 51°18.55 2°49.84 312.8 13 306 14.1
2003-09-22 07:01:04 51°18.68 2°49.56 310.8 12.9 306 12
2003-09-22 07:02:04 51°18.8 2°49.28 311.7 13 307 12.5
2003-09-22 07:03:04 51°18.93 2°49 310.5 13 305 12.9
2003-09-22 07:04:04 51°19.05 2°48.72 311.7 13.1 306 15.8
2003-09-22 07:05:04 51°19.18 2°48.44 311.5 13.1 306 18
2003-09-22 07:06:04 51°19.31 2°48.16 309.8 13.2 305 20.2
2003-09-22 07:07:04 51°19.43 2°47.87 310.1 13.2 304 22
2003-09-22 07:08:04 51°19.56 2°47.58 310 13.2 304 23.1
2003-09-22 07:09:04 51°19.68 2°47.29 309.9 13.2 305 23
2003-09-22 07:10:04 51°19.81 2°47 310.6 13.2 305 22
2003-09-22 07:11:04 51°19.93 2°46.72 310.3 13.1 306 18.7
2003-09-22 07:12:04 51°20.05 2°46.42 304.3 12.9 299 16.2
2003-09-22 07:13:04 51°20.14 2°46.11 297.7 12.9 293 15.5
2003-09-22 07:14:04 51°20.2 2°45.79 290.2 12.9 286 19
2003-09-22 07:15:04 51°20.26 2°45.46 289 12.9 284 23.5
2003-09-22 07:16:04 51°20.31 2°45.12 283.7 13 280 24.9
2003-09-22 07:17:04 51°20.34 2°44.77 283.9 13.5 281 26.9
2003-09-22 07:18:04 51°20.38 2°44.42 282.3 13.5 278 27.8
2003-09-22 07:19:04 51°20.41 2°44.06 282.3 13.5 278 28.8
2003-09-22 07:20:04 51°20.44 2°43.7 282.1 13.7 278 29
2003-09-22 07:21:04 51°20.48 2°43.35 282.3 13.5 278 27.5
2003-09-22 07:22:04 51°20.51 2°42.99 281.9 13.3 278 25.8
2003-09-22 07:23:04 51°20.54 2°42.64 282.3 13.2 277 19.9
2003-09-22 07:24:04 51°20.57 2°42.3 282.5 13.3 278 20
2003-09-22 07:25:04 51°20.6 2°41.95 281.9 13.2 278 22
2003-09-22 07:26:04 51°20.64 2°41.61 283 13.2 279 23.6
2003-09-22 07:27:04 51°20.67 2°41.26 282.5 13.1 279 28.8
2003-09-22 07:28:04 51°20.71 2°40.92 282.1 13.1 279 28.3
2003-09-22 07:29:04 51°20.74 2°40.57 281.4 13.2 277 27.7
2003-09-22 07:30:02 51°20.77 2°40.24 281.6 13.2 278 27.4
2003-09-22 07:31:04 51°20.79 2°39.88 280.9 13.2 277 27.5
2003-09-22 07:32:02 51°20.82 2°39.54 281.7 13.1 278 25.2
2003-09-22 07:33:04 51°20.85 2°39.18 280.9 13.1 277 26.9
2003-09-22 07:34:04 51°20.88 2°38.84 281.5 13 278 26.8
2003-09-22 07:35:04 51°20.91 2°38.5 281.1 13 277 26.1
2003-09-22 07:36:04 51°20.94 2°38.16 280.6 13 277 26.2
2003-09-22 07:37:04 51°20.96 2°37.81 281.5 13 278 26.7
2003-09-22 07:38:04 51°20.99 2°37.47 281.3 13 278 26.2
2003-09-22 07:39:04 51°21.02 2°37.13 281.1 13 278 25.4
2003-09-22 07:40:04 51°21.05 2°36.78 281.4 13 278 26.4
2003-09-22 07:41:04 51°21.08 2°36.44 281.7 13 279 28.3
2003-09-22 07:42:04 51°21.11 2°36.1 281.4 13 278 31
2003-09-22 07:43:04 51°21.15 2°35.75 280.7 13.1 278 30.6
2003-09-22 07:44:04 51°21.18 2°35.41 280.9 13.1 278 36.5
2003-09-22 07:45:04 51°21.21 2°35.07 281.2 13.1 278 37
2003-09-22 07:46:04 51°21.24 2°34.72 281.3 13.1 279 33.8
2003-09-22 07:47:04 51°21.27 2°34.38 280.9 13.1 279 32.4
2003-09-22 07:48:04 51°21.31 2°34.04 281.4 13.1 279 34
2003-09-22 07:49:04 51°21.37 2°33.71 296.8 13.2 298 33.1
2003-09-22 07:50:04 51°21.52 2°33.46 327.3 13.2 326 30.5
2003-09-22 07:51:04 51°21.72 2°33.29 335.3 13.4 331 25.8
2003-09-22 07:52:04 51°21.92 2°33.14 342 13.6 339 25.6
2003-09-22 07:53:04 51°22.14 2°33.05 354 13.6 352 32.6
2003-09-22 07:54:04 51°22.37 2°33.01 356.2 13.7 354 32.6
2003-09-22 07:55:04 51°22.59 2°32.94 349.2 13.6 344 32.7
2003-09-22 07:56:04 51°22.81 2°32.84 347.1 13.7 345 33.4
2003-09-22 07:57:04 51°23.02 2°32.74 339.6 13.3 334 33.6
2003-09-22 07:58:04 51°23.15 2°32.47 301.9 13 299 32.6
2003-09-22 07:59:04 51°23.21 2°32.15 278.7 12.7 275 31.8
2003-09-22 08:00:04 51°23.21 2°31.81 270.7 12.6 267 31
2003-09-22 08:01:04 51°23.18 2°31.48 262.9 12.7 261 25.3
2003-09-22 08:02:04 51°23.15 2°31.15 264.1 12.6 262 26.5
2003-09-22 08:03:04 51°23.12 2°30.81 265.1 12.6 262 31.4
2003-09-22 08:04:04 51°23.09 2°30.48 264.8 12.7 263 34.1
2003-09-22 08:05:04 51°23.06 2°30.15 261.4 12.7 259 34.6
2003-09-22 08:06:04 51°23.02 2°29.81 261.1 12.7 258 35.2
2003-09-22 08:07:04 51°22.98 2°29.48 257.6 12.7 254 35.3
2003-09-22 08:08:04 51°22.91 2°29.16 252.3 12.7 250 36.4
2003-09-22 08:09:04 51°22.91 2°28.83 276 12.8 272 35.7
2003-09-22 08:10:04 51°22.89 2°28.49 266.1 12.8 263 36.2
2003-09-22 08:11:04 51°22.87 2°28.15 265.6 12.9 263 36
2003-09-22 08:12:04 51°22.85 2°27.81 267.8 12.9 266 36.2
2003-09-22 08:13:04 51°22.83 2°27.47 265.8 12.7 265 35.5
2003-09-22 08:14:04 51°22.8 2°27.13 265 12.7 263 35.7
2003-09-22 08:15:04 51°22.78 2°26.79 264.7 12.9 264 35.1
2003-09-22 08:16:04 51°22.75 2°26.45 265.8 13 265 34.8
2003-09-22 08:17:04 51°22.8 2°26.12 301.7 13.2 303 25.8
2003-09-22 08:18:04 51°22.99 2°25.94 346.2 13.7 346 18.9
2003-09-22 08:19:04 51°23.21 2°25.86 354.7 14 355 27.5
2003-09-22 08:20:04 51°23.45 2°25.83 359 14.4 356 33.5
2003-09-22 08:21:04 51°23.69 2°25.79 358.2 14.2 357 34.5
2003-09-22 08:22:04 51°23.92 2°25.75 358.6 14.5 357 35.1
2003-09-22 08:23:04 51°24.16 2°25.76 3.2 14.3 2 35.8
2003-09-22 08:24:04 51°24.4 2°25.77 5.4 14.1 4 35.6
2003-09-22 08:25:04 51°24.64 2°25.81 10.6 14.3 7 36.6
2003-09-22 08:26:02 51°24.86 2°25.86 10.2 14.2 7 37.1
2003-09-22 08:27:04 51°25.11 2°25.91 12.5 14.3 11 35.9
2003-09-22 08:28:04 51°25.34 2°25.99 15.1 14.5 11 35.4
2003-09-22 08:29:04 51°25.58 2°26.05 12.2 14.4 9 36.2
2003-09-22 08:30:04 51°25.81 2°26.13 14.8 14.4 10 34.4
2003-09-22 08:31:04 51°26.05 2°26.19 12.7 14.3 9 33
2003-09-22 08:32:04 51°26.28 2°26.25 13.8 14.3 10 31.5
2003-09-22 08:33:04 51°26.52 2°26.32 12.9 14.3 10 29.8
2003-09-22 08:34:04 51°26.75 2°26.4 13 14.4 11 25.2
2003-09-22 08:35:04 51°26.98 2°26.47 12.7 14.2 9 25.6
2003-09-22 08:36:04 51°27.22 2°26.53 13.3 14.2 12 28.9
2003-09-22 08:37:02 51°27.44 2°26.6 14.5 14.3 12 32
2003-09-22 08:38:04 51°27.69 2°26.67 14.5 14.4 12 34
2003-09-22 08:39:04 51°27.92 2°26.74 12.4 14.3 7 31.7
2003-09-22 08:40:04 51°28.15 2°26.8 10.9 14.3 9 35.8
2003-09-22 08:41:04 51°28.39 2°26.87 13.6 14.2 11 34.6
2003-09-22 08:42:04 51°28.62 2°26.94 14.8 12.8 13 36.3
2003-09-22 08:43:04 51°28.75 2°26.94 342.5 5.1 349 36.7
2003-09-22 08:44:04 51°28.78 2°26.96 331.6 2 92 -999
2003-09-22 08:45:02 51°28.78 2°27.01 342.1 1.6 79 36.6
2003-09-22 08:46:04 51°28.79 2°27.05 346.9 1.7 62 36.6
2003-09-22 08:47:04 51°28.81 2°27.09 342.5 1.7 50 36.5
2003-09-22 08:48:04 51°28.83 2°27.12 333.9 2.2 18 36.4
2003-09-22 08:49:04 51°28.94 2°27.08 353.4 11 357 36.5
2003-09-22 08:50:04 51°29.16 2°27.07 2.5 14.4 1 36.8
2003-09-22 08:51:04 51°29.4 2°27.12 13.2 14.5 10 34.4
2003-09-22 08:52:04 51°29.64 2°27.18 12.1 14.6 8 31.3
2003-09-22 08:53:04 51°29.88 2°27.25 13.7 14.5 9 30.9
2003-09-22 08:54:04 51°30.12 2°27.3 8.1 13.9 7 32.6
2003-09-22 08:55:04 51°30.35 2°27.36 10.8 14.2 9 32.4
2003-09-22 08:56:04 51°30.58 2°27.41 8.6 14.1 6 32.4
2003-09-22 08:57:04 51°30.81 2°27.47 11.1 14.1 11 32
2003-09-22 08:58:04 51°31.04 2°27.53 13.4 14.3 10 31.3
2003-09-22 08:59:02 51°31.27 2°27.57 12.5 14.4 8 37
2003-09-22 09:00:04 51°31.52 2°27.64 14.5 14.1 8 39.9
2003-09-22 09:01:04 51°31.75 2°27.7 11.1 14.5 10 39.7
2003-09-22 09:02:04 51°31.98 2°27.79 21.5 14.6 19 40.7
2003-09-22 09:03:04 51°32.21 2°27.94 25.5 14.7 22 41.8
2003-09-22 09:04:04 51°32.44 2°28.07 23.2 14.7 20 40.9
2003-09-22 09:05:02 51°32.66 2°28.2 23 14.8 18 40.6
2003-09-22 09:06:04 51°32.9 2°28.34 23.5 14.4 22 39.4
2003-09-22 09:07:04 51°33.12 2°28.48 26 14.8 22 38.5
2003-09-22 09:08:04 51°33.35 2°28.62 23.4 14.8 21 39.5
2003-09-22 09:09:04 51°33.59 2°28.76 23.2 14.6 20 39.5
2003-09-22 09:10:04 51°33.81 2°28.89 19.6 14.6 18 37.3
2003-09-22 09:11:04 51°34.04 2°29.03 24.1 14.7 20 39
2003-09-22 09:12:04 51°34.27 2°29.18 21.4 14.6 22 37.7
2003-09-22 09:13:04 51°34.5 2°29.32 22.5 14.9 20 36.9
2003-09-22 09:14:04 51°34.73 2°29.45 23.9 14.4 21 38
2003-09-22 09:15:04 51°34.95 2°29.59 21.1 14.3 17 33.9
2003-09-22 09:16:04 51°35.18 2°29.72 20.6 14.5 17 33
2003-09-22 09:17:04 51°35.41 2°29.86 21.9 14.6 21 38.3
2003-09-22 09:18:04 51°35.64 2°30 23.5 15 21 38.9
2003-09-22 09:19:04 51°35.86 2°30.15 23.6 14.6 20 38.2
2003-09-22 09:20:04 51°36.08 2°30.3 26.2 14.3 22 37.6
2003-09-22 09:21:04 51°36.31 2°30.46 23.3 14.8 23 37.2
2003-09-22 09:22:04 51°36.53 2°30.61 25.7 14.6 25 37.2
2003-09-22 09:23:02 51°36.75 2°30.75 24.3 14.8 22 38.1
2003-09-22 09:24:04 51°36.98 2°30.91 27.1 14.7 24 39
2003-09-22 09:25:04 51°37.2 2°31.07 28.9 14.5 25 39.7
2003-09-22 09:26:04 51°37.42 2°31.24 26.9 14.5 23 40.2
2003-09-22 09:27:02 51°37.63 2°31.4 28.7 14.4 29 39.7
2003-09-22 09:28:04 51°37.85 2°31.59 32.3 14.5 28 41.1
2003-09-22 09:29:04 51°38.07 2°31.76 26.9 15.1 24 42.1
2003-09-22 09:30:02 51°38.29 2°31.91 27.1 14.9 25 42.7
2003-09-22 09:31:02 51°38.51 2°32.1 30.4 14.7 30 42.6
2003-09-22 09:32:02 51°38.73 2°32.3 31.5 15.2 28 43.5
2003-09-22 09:33:04 51°38.95 2°32.49 30.8 14.9 27 42.7
2003-09-22 09:34:02 51°39.16 2°32.68 32.7 14.8 29 41.5
2003-09-22 09:35:04 51°39.37 2°32.89 37.8 14.7 32 42.5
2003-09-22 09:36:04 51°39.58 2°33.1 37.1 14.9 33 42.6
2003-09-22 09:37:04 51°39.79 2°33.31 36.2 15.2 33 42.9
2003-09-22 09:38:04 51°40 2°33.51 32.5 14.6 28 41.1
2003-09-22 09:39:04 51°40.2 2°33.72 41.7 14.9 36 41.6
2003-09-22 09:40:04 51°40.41 2°33.93 34.3 14.5 32 43.3
2003-09-22 09:41:04 51°40.61 2°34.15 37.4 14.7 32 40.2
2003-09-22 09:42:02 51°40.81 2°34.36 38 14.7 34 40.5
2003-09-22 09:43:04 51°41.03 2°34.59 39.6 14.9 34 38.2
2003-09-22 09:44:04 51°41.22 2°34.83 39.2 14.8 34 36.2
2003-09-22 09:45:04 51°41.42 2°35.08 45.4 15 40 34.5
2003-09-22 09:46:04 51°41.62 2°35.32 40.6 14.9 37 35.7
2003-09-22 09:47:04 51°41.82 2°35.57 41.7 15.4 41 34.9
2003-09-22 09:48:04 51°42.01 2°35.83 43.5 15 40 32.9
2003-09-22 09:49:02 51°42.19 2°36.07 41 14.3 38 32.4
2003-09-22 09:50:02 51°42.34 2°36.37 68 14.9 65 31
2003-09-22 09:51:04 51°42.44 2°36.75 76.4 14.7 69 33.6
2003-09-22 09:52:04 51°42.49 2°37.13 91.6 14.3 87 35.3
2003-09-22 09:53:04 51°42.47 2°37.5 108.8 13.8 108 36.9
2003-09-22 09:54:04 51°42.37 2°37.83 133.3 13.7 122 37.8
2003-09-22 09:55:04 51°42.24 2°38.14 135 13.4 125 39.8
2003-09-22 09:56:04 51°42.12 2°38.44 130.7 13.6 124 40.1
2003-09-22 09:57:04 51°42 2°38.75 130.6 13.5 123 45
2003-09-22 09:58:04 51°41.89 2°39.07 130.6 13.7 123 45.5
2003-09-22 09:59:04 51°41.77 2°39.39 130.9 13.6 123 45.8
2003-09-22 10:00:04 51°41.66 2°39.71 130.2 13.7 117 43.7
2003-09-22 10:01:04 51°41.55 2°40.02 128.7 13.5 119 43
2003-09-22 10:02:04 51°41.44 2°40.35 129.1 13.8 116 38.9
2003-09-22 10:03:04 51°41.33 2°40.66 128.9 13.7 120 36.9
2003-09-22 10:04:04 51°41.22 2°40.99 128.7 13.7 121 37.2
2003-09-22 10:05:04 51°41.11 2°41.31 128.4 13.7 119 38.3
2003-09-22 10:06:04 51°40.99 2°41.63 135.6 13.6 123 40
2003-09-22 10:07:04 51°40.86 2°41.92 137.1 13.6 129 37.2
2003-09-22 10:08:04 51°40.72 2°42.21 136.5 13.5 127 34.6
2003-09-22 10:09:04 51°40.59 2°42.5 137.6 13.6 127 34.3
2003-09-22 10:10:04 51°40.46 2°42.79 136.9 13.6 128 33.9
2003-09-22 10:11:04 51°40.32 2°43.08 136.4 13.4 126 35.9
2003-09-22 10:12:04 51°40.19 2°43.37 136.8 13.4 125 34.5
2003-09-22 10:13:04 51°40.05 2°43.66 136.3 13.4 125 35.8
2003-09-22 10:14:04 51°39.92 2°43.95 137 13.3 127 36.8
2003-09-22 10:15:04 51°39.79 2°44.24 136.4 13.4 127 39.8
2003-09-22 10:16:04 51°39.66 2°44.53 136.4 13.4 130 40.4
2003-09-22 10:17:04 51°39.52 2°44.8 146.7 12.9 144 36.9
2003-09-22 10:18:04 51°39.33 2°44.95 166.5 12.6 157 36
2003-09-22 10:19:04 51°39.13 2°45.06 173.4 12.4 165 37.1
2003-09-22 10:20:04 51°38.93 2°45.11 187.2 12.1 182 37.7
2003-09-22 10:21:04 51°38.74 2°45.02 208.7 12 207 37.9
2003-09-22 10:22:04 51°38.56 2°44.87 212.4 12 209 36.3
2003-09-22 10:23:04 51°38.39 2°44.72 212.4 11.9 208 36.6
2003-09-22 10:24:04 51°38.21 2°44.58 211.9 11.9 209 37.6
2003-09-22 10:25:04 51°38.05 2°44.4 222.8 12.1 221 35.8
2003-09-22 10:26:04 51°37.95 2°44.13 255.1 12.1 262 37.2
2003-09-22 10:27:04 51°38.02 2°43.83 299.7 13.2 304 37
2003-09-22 10:28:04 51°38.15 2°43.53 301.9 13.2 306 36.8
2003-09-22 10:29:04 51°38.28 2°43.24 303.2 13.3 307 38.5
2003-09-22 10:30:04 51°38.4 2°42.96 303 13.3 306 38.1
2003-09-22 10:31:04 51°38.53 2°42.67 304.5 13.1 306 36.8
2003-09-22 10:32:04 51°38.66 2°42.38 303.9 13.3 305 33.7
2003-09-22 10:33:04 51°38.78 2°42.1 304 12.9 305 29.1
2003-09-22 10:34:04 51°38.91 2°41.82 304.3 12.9 305 24.7
2003-09-22 10:35:04 51°39.04 2°41.54 304.8 12.9 307 23
2003-09-22 10:36:04 51°39.17 2°41.27 304.2 12.8 306 24
2003-09-22 10:37:04 51°39.3 2°40.99 304.2 13 307 33.8
2003-09-22 10:38:04 51°39.43 2°40.71 303.7 13.2 307 37.9
2003-09-22 10:39:04 51°39.5 2°40.4 268.7 11.7 267 38.8
2003-09-22 10:40:04 51°39.39 2°40.16 222 11.5 213 39.7
2003-09-22 10:41:04 51°39.21 2°40.05 202.1 11.3 197 37.9
2003-09-22 10:42:04 51°39.03 2°39.96 203.2 11.6 198 37.3
2003-09-22 10:43:04 51°38.85 2°39.87 202.3 11.6 198 37.6
2003-09-22 10:44:04 51°38.67 2°39.77 202.5 11.5 198 34.1
2003-09-22 10:45:04 51°38.48 2°39.68 202.9 11.5 196 37.4
2003-09-22 10:46:04 51°38.3 2°39.59 202.9 11.6 197 38.9
2003-09-22 10:47:04 51°38.12 2°39.49 203.5 11.6 199 38.9
2003-09-22 10:48:04 51°37.93 2°39.39 202.9 11.7 198 40.6
2003-09-22 10:49:04 51°37.75 2°39.31 200.3 11.8 195 39.5
2003-09-22 10:50:04 51°37.56 2°39.22 201.8 11.7 197 38
2003-09-22 10:51:04 51°37.37 2°39.14 201 11.7 196 43.4
2003-09-22 10:52:04 51°37.18 2°39.06 200.4 11.7 195 42.4
2003-09-22 10:53:04 51°37 2°38.97 201.8 11.6 196 43.4
2003-09-22 10:54:04 51°36.81 2°38.88 200.3 11.9 196 42.6
2003-09-22 10:55:04 51°36.62 2°38.8 201.4 11.7 197 41.1
2003-09-22 10:56:04 51°36.43 2°38.71 201.3 11.8 195 40.8
2003-09-22 10:57:04 51°36.24 2°38.63 198 11.8 191 39.9
2003-09-22 10:58:04 51°36.05 2°38.6 188.7 11.9 182 40.8
2003-09-22 10:59:04 51°35.85 2°38.62 179.2 12 169 40
2003-09-22 11:00:04 51°35.65 2°38.67 179.2 12.1 171 38.7
2003-09-22 11:01:04 51°35.46 2°38.73 179 11.9 170 38.8
2003-09-22 11:02:04 51°35.26 2°38.81 171.7 12.2 162 38.6
2003-09-22 11:03:04 51°35.07 2°38.92 168.4 12.2 158 36.7
2003-09-22 11:04:04 51°34.88 2°39.04 167.4 12.4 156 34.9
2003-09-22 11:05:04 51°34.7 2°39.21 158.9 12.5 149 30.4
2003-09-22 11:06:04 51°34.52 2°39.38 159.7 12.7 149 30
2003-09-22 11:07:04 51°34.33 2°39.54 160.3 12.5 149 22.9
2003-09-22 11:08:04 51°34.15 2°39.7 160 12.7 151 17.6
2003-09-22 11:09:04 51°33.96 2°39.87 160.4 12.9 150 18.4
2003-09-22 11:10:04 51°33.77 2°40.03 159.4 12.9 150 33.8
2003-09-22 11:11:04 51°33.58 2°40.18 162 12.4 154 39.4
2003-09-22 11:12:04 51°33.4 2°40.34 158.7 12.5 153 41.3
2003-09-22 11:13:04 51°33.22 2°40.5 160.3 12.5 150 38.9
2003-09-22 11:14:04 51°33.03 2°40.66 160.3 12.5 151 41.4
2003-09-22 11:15:04 51°32.85 2°40.82 159.5 12.5 153 40.4
2003-09-22 11:16:04 51°32.66 2°40.97 159.8 12.5 155 38.5
2003-09-22 11:17:04 51°32.48 2°41.13 160 12.6 154 38.9
2003-09-22 11:18:04 51°32.29 2°41.23 174.4 12.1 170 36.3
2003-09-22 11:19:04 51°32.12 2°41.11 227.1 11.5 227 39.3
2003-09-22 11:20:04 51°31.99 2°40.88 230.8 11.6 229 38.6
2003-09-22 11:21:04 51°31.87 2°40.65 232.2 11.4 231 39
2003-09-22 11:22:04 51°31.75 2°40.41 231.9 11.5 231 36.2
2003-09-22 11:23:04 51°31.62 2°40.18 225.7 11.8 224 37.7
2003-09-22 11:24:04 51°31.47 2°39.98 220.9 11.6 218 37
2003-09-22 11:25:02 51°31.32 2°39.79 221.1 11.8 219 35.2
2003-09-22 11:26:04 51°31.16 2°39.59 221.2 12 219 40
2003-09-22 11:27:04 51°31.01 2°39.39 221.4 11.9 220 38.2
2003-09-22 11:28:04 51°30.85 2°39.2 217.7 11.9 217 39.2
2003-09-22 11:29:04 51°30.68 2°39.03 213.5 11.7 209 39.5
2003-09-22 11:30:04 51°30.52 2°38.87 214.6 11.6 210 37.7
2003-09-22 11:31:04 51°30.35 2°38.7 215.8 11.9 213 39.4
2003-09-22 11:32:04 51°30.18 2°38.54 215.2 11.6 211 39.9
2003-09-22 11:33:02 51°30.02 2°38.38 214.1 11.8 212 38.6
2003-09-22 11:34:04 51°29.84 2°38.22 210.1 11.7 205 39.3
2003-09-22 11:35:04 51°29.66 2°38.13 197.9 11.9 191 38.5
2003-09-22 11:36:04 51°29.46 2°38.11 188.3 11.8 180 38.4
2003-09-22 11:37:04 51°29.27 2°38.14 170.4 12.3 157 37.3
2003-09-22 11:38:04 51°29.11 2°38.36 138.9 13.2 132 36.6
2003-09-22 11:39:04 51°28.95 2°38.61 147.6 12.6 139 38.6
2003-09-22 11:40:04 51°28.8 2°38.84 148 12.8 140 37.6
2003-09-22 11:41:04 51°28.63 2°39.07 149 12.9 139 40.6
2003-09-22 11:42:04 51°28.47 2°39.3 148.7 13.1 138 38
2003-09-22 11:43:04 51°28.31 2°39.53 148.7 13 136 35.7
2003-09-22 11:44:04 51°28.15 2°39.77 153 12.9 142 36
2003-09-22 11:45:04 51°27.97 2°39.93 160.9 12.7 151 35.3
2003-09-22 11:46:04 51°27.78 2°40.09 160.9 12.7 153 34.4
2003-09-22 11:47:04 51°27.6 2°40.25 161.3 12.5 153 32.9
2003-09-22 11:48:04 51°27.41 2°40.41 160.7 12.8 149 32.9
2003-09-22 11:49:04 51°27.22 2°40.58 160.8 12.9 150 32
2003-09-22 11:50:04 51°27.04 2°40.74 160 12.7 156 31.7
2003-09-22 11:51:04 51°26.85 2°40.91 159.6 12.7 152 33.3
2003-09-22 11:52:04 51°26.67 2°41.07 161.1 12.6 154 33.3
2003-09-22 11:53:04 51°26.48 2°41.23 161.5 12.8 151 31.2
2003-09-22 11:54:04 51°26.29 2°41.39 160.7 13 149 30.1
2003-09-22 11:55:04 51°26.1 2°41.54 159.7 12.7 154 25.9
2003-09-22 11:56:04 51°25.91 2°41.7 159.7 12.8 152 30
2003-09-22 11:57:04 51°25.72 2°41.86 160.7 13 151 28.1
2003-09-22 11:58:04 51°25.53 2°42.01 160.4 12.7 154 25.7
2003-09-22 11:59:04 51°25.34 2°42.16 160.4 12.8 153 26.9
2003-09-22 12:00:04 51°25.15 2°42.32 158 12.9 152 26.3
2003-09-22 12:01:04 51°24.96 2°42.47 159.9 13 150 27.3
2003-09-22 12:02:04 51°24.77 2°42.63 160 12.8 155 20.5
2003-09-22 12:03:04 51°24.58 2°42.78 161.7 12.8 155 23.3
2003-09-22 12:04:04 51°24.39 2°42.94 160.4 12.8 154 23.3
2003-09-22 12:05:04 51°24.2 2°43.09 159.4 13 152 22.7
2003-09-22 12:06:04 51°24 2°43.24 161.1 13 153 25.1
2003-09-22 12:07:04 51°23.81 2°43.4 160.4 12.9 155 28.4
2003-09-22 12:08:04 51°23.62 2°43.56 161.1 13 154 26.1
2003-09-22 12:09:04 51°23.42 2°43.71 161 13.3 152 27.5
2003-09-22 12:10:04 51°23.23 2°43.87 160.3 13.2 152 27.9
2003-09-22 12:11:04 51°23.03 2°44.02 160.4 13 157 26.7
2003-09-22 12:12:02 51°22.84 2°44.17 160.3 13.2 154 27.1
2003-09-22 12:13:04 51°22.64 2°44.33 161.6 13.2 157 26
2003-09-22 12:14:04 51°22.44 2°44.48 161.7 13.2 155 26.4
2003-09-22 12:15:04 51°22.24 2°44.63 161.3 13.1 156 24
2003-09-22 12:16:04 51°22.05 2°44.78 160 13.1 153 24.3
2003-09-22 12:17:04 51°21.85 2°44.93 159.7 13.2 153 23.2
2003-09-22 12:18:04 51°21.66 2°45.08 159.2 13 156 24.1
2003-09-22 12:19:04 51°21.46 2°45.24 159.5 12.9 152 26
2003-09-22 12:20:04 51°21.27 2°45.39 159.8 13.1 154 27.6
2003-09-22 12:21:04 51°21.07 2°45.54 160 12.9 154 27.6
2003-09-22 12:22:04 51°20.88 2°45.69 160 13 152 26.4
2003-09-22 12:23:04 51°20.68 2°45.84 159.9 13.2 154 22
2003-09-22 12:24:04 51°20.49 2°45.99 160.6 12.8 152 23.3
2003-09-22 12:25:02 51°20.31 2°46.17 149 13.3 145 17.4
2003-09-22 12:26:04 51°20.14 2°46.42 140.3 13.6 137 16.5
2003-09-22 12:27:04 51°19.99 2°46.69 131.9 14 126 17.5
2003-09-22 12:28:04 51°19.85 2°46.97 134.3 13.7 128 21.6
2003-09-22 12:29:04 51°19.7 2°47.24 135.8 13.5 133 22.6
2003-09-22 12:30:04 51°19.56 2°47.53 131.6 13.6 124 23.1
2003-09-22 12:31:04 51°19.43 2°47.81 134.8 13.7 129 22.1
2003-09-22 12:32:04 51°19.29 2°48.1 135 13.6 128 20.3
2003-09-22 12:33:04 51°19.15 2°48.38 132.8 13.5 127 18
2003-09-22 12:34:04 51°19.01 2°48.66 134.3 13.3 127 15.7
2003-09-22 12:35:04 51°18.87 2°48.94 134.3 13.4 130 13.2
2003-09-22 12:36:04 51°18.74 2°49.23 127.6 13.6 121 12.5
2003-09-22 12:37:04 51°18.62 2°49.53 126.8 13.7 121 12.2
2003-09-22 12:38:04 51°18.51 2°49.84 127 13.5 123 14.4
2003-09-22 12:39:04 51°18.39 2°50.14 126.8 13.4 123 15.3
2003-09-22 12:40:04 51°18.27 2°50.45 127.1 13.4 118 15
2003-09-22 12:41:04 51°18.15 2°50.74 134 13.2 128 14.2
2003-09-22 12:42:04 51°18.01 2°51.01 134.8 13.5 131 13.1
2003-09-22 12:43:04 51°17.88 2°51.3 132.9 13.3 127 11.9
2003-09-22 12:44:04 51°17.74 2°51.58 133.8 13.2 126 11.1
2003-09-22 12:45:04 51°17.6 2°51.86 136 13.4 131 11.5
2003-09-22 12:46:04 51°17.46 2°52.13 135.9 13.4 129 11.4
2003-09-22 12:47:04 51°17.29 2°52.34 151.6 13 149 11.5
2003-09-22 12:48:04 51°17.1 2°52.52 155 13 150 10.5
2003-09-22 12:49:04 51°16.91 2°52.7 154.9 13.1 147 10.3
2003-09-22 12:50:04 51°16.72 2°52.88 153.8 13.2 152 11.9
2003-09-22 12:51:04 51°16.53 2°53.05 158.4 13.1 150 13.1
2003-09-22 12:52:04 51°16.34 2°53.21 158.5 13.2 155 13.1
2003-09-22 12:53:04 51°16.14 2°53.37 157.5 13.1 154 13
2003-09-22 12:54:04 51°15.95 2°53.54 156.5 13.4 149 12.5
2003-09-22 12:55:04 51°15.76 2°53.71 155.3 13.1 151 11.9
2003-09-22 12:56:04 51°15.56 2°53.87 155.9 13.2 154 11.4
2003-09-22 12:57:04 51°15.37 2°54.04 157.7 13.2 152 10.7
2003-09-22 12:58:04 51°15.18 2°54.2 158.1 12.6 152 10.1
2003-09-22 12:59:04 51°15 2°54.35 155.6 12.3 152 9.6
2003-09-22 13:00:04 51°14.82 2°54.51 156.8 12.3 152 10.5
2003-09-22 13:01:04 51°14.65 2°54.7 154.1 12.4 150 10.4
2003-09-22 13:02:04 51°14.48 2°54.89 149.8 12.6 142 10.8
2003-09-22 13:03:04 51°14.34 2°55.12 130.7 11.3 127 12.1
2003-09-22 13:04:04 51°14.24 2°55.3 137.9 7.9 135 11.8
2003-09-22 13:05:04 51°14.14 2°55.4 157.6 6.5 154 11.4
2003-09-22 13:06:04 51°14.05 2°55.47 159 6.3 156 11.2
2003-09-22 13:07:04 51°13.95 2°55.54 158.1 6.2 155 11.8
2003-09-22 13:08:04 51°13.86 2°55.61 158.2 5.8 155 11.4
2003-09-22 13:09:04 51°13.79 2°55.67 156 4.7 151 11.7
2003-09-22 13:10:04 51°13.73 2°55.74 136 4.5 132 11.5
2003-09-22 13:11:04 51°13.69 2°55.84 129.9 4.4 124 11.1
2003-09-22 13:12:04 51°13.65 2°55.94 127.7 4.4 125 11.2
2003-09-22 13:13:04 51°13.62 2°56.03 113.1 3.2 110 11
2003-09-22 13:14:04 51°13.61 2°56.08 117.3 1.7 110 9
2003-09-22 13:15:04 51°13.6 2°56.11 125 0.6 126 7.9
2003-09-22 13:16:08 51°13.6 2°56.11 127 0.1 20 -999
2003-09-22 13:17:08 51°13.6 2°56.11 127.7   1 -999